Beef Island, British Virgin Islands

8:04 PM AST on October 21, 2014 (GMT -0400)
Sopers Hole | Change Station
CLOSE
Current Station
Personal Weather Station
Location: Tortola, TORTOLA
Elevation: 36 ft
Nearby Weather Stations

Elev 36 ft 18.38 °N, 64.70 °W | Updated 8 seconds ago

Partly Cloudy
Partly Cloudy
80.8 °F
Feels Like 85 °F
N
1.1
Wind Variable Wind from ESE
Gusts 2.0 mph

Today
High -- | Low -- °F
--% Chance of Precip.
Yesterday
High -- | Low -- °F
Precip. -- in
6:13 AM 5:51 PM
Waning Crescent, 4% visible
Pressure 29.94 in
Visibility 10.0 miles
Clouds Few 2800 ft
Heat Index 85 °F
Dew Point 73 °F
Humidity 77%
Rainfall 0.00 in
Snow Depth Not available.
UV 0 out of 12
Pollen Not available.
Air Quality Not available.
Flu Activity Not available.
METAR TISX 212353Z 04004KT 10SM FEW028 26/23 A2994 RMK AO2 SLP138 T02610228 10317 20261 53013

More Conditions Fewer Conditions

Pressure 29.94 in
Visibility 10.0 miles
Clouds Few 2800 ft
Heat Index 85 °F
Dew Point 73 °F
Humidity 77%
Rainfall 0.00 in
Snow Depth Not available.
UV 0 out of 12
Pollen Not available.
Air Quality Not available.
Flu Activity Not available.
METAR TISX 212353Z 04004KT 10SM FEW028 26/23 A2994 RMK AO2 SLP138 T02610228 10317 20261 53013

More Conditions Fewer Conditions

10-Day Weather Forecast

Almanac

Astronomy

Oct. 21, 2014 Rise Set
Actual Time 6:13 AM AST 5:51 PM AST
Civil Twilight 5:51 AM AST 6:13 PM AST
Nautical Twilight 5:25 AM AST 6:39 PM AST
Astronomical Twilight 5:00 AM AST 7:04 PM AST
Moon 4:12 AM AST (10/21) 4:28 PM AST (10/21)
Length of Visible Light 12h 22m
Length of Day
11h 37m
Tomorrow will be 0m 58s shorter.
Waning Crescent, 4% of the Moon is Illuminated
Today
Waning Crescent
Oct 23
New
Oct 30
First Quarter
Nov 6
Full
Nov 14
Last Quarter

Today's Extremes

Country Highs Country Lows

Community

WunderPhotos

Upload Photos

1,763,824 photos uploaded!

Nearby

Snow Depth

Not available.

Earthquake Activity

City Distance Mag. Time & Date
No recent earthquake activity has been reported nearby.
Minimum magnitude displayed is 2.5.

Coastal Water Temperatures

Place Temperature
No Stations Reporting

Nearby Weather Stations